sensor_id;sensor_type;location;lat;lon;timestamp;temperature;humidity
37906;DHT22;23739;51.448;6.674;2024-01-15T08:12:19;0.70;99.90
37906;DHT22;23739;51.448;6.674;2024-01-15T08:14:45;1.00;99.90
37906;DHT22;23739;51.448;6.674;2024-01-15T08:17:11;1.10;99.90
37906;DHT22;23739;51.448;6.674;2024-01-15T08:19:36;0.90;99.90
37906;DHT22;23739;51.448;6.674;2024-01-15T08:22:02;0.90;99.90
37906;DHT22;23739;51.448;6.674;2024-01-15T08:24:28;0.90;99.90
37906;DHT22;23739;51.448;6.674;2024-01-15T08:26:54;0.90;99.90
37906;DHT22;23739;51.448;6.674;2024-01-15T08:29:21;0.90;99.90
37906;DHT22;23739;51.448;6.674;2024-01-15T08:31:47;0.90;99.90
37906;DHT22;23739;51.448;6.674;2024-01-15T08:36:39;0.90;99.90
37906;DHT22;23739;51.448;6.674;2024-01-15T08:39:06;1.00;99.90
37906;DHT22;23739;51.448;6.674;2024-01-15T08:41:32;0.90;99.90
37906;DHT22;23739;51.448;6.674;2024-01-15T08:43:58;0.90;99.90
37906;DHT22;23739;51.448;6.674;2024-01-15T08:46:24;0.70;99.90
37906;DHT22;23739;51.448;6.674;2024-01-15T08:48:50;0.60;99.90
37906;DHT22;23739;51.448;6.674;2024-01-15T08:51:16;0.60;99.90
37906;DHT22;23739;51.448;6.674;2024-01-15T08:53:44;0.60;99.90
37906;DHT22;23739;51.448;6.674;2024-01-15T08:56:09;0.90;99.90
37906;DHT22;23739;51.448;6.674;2024-01-15T08:58:35;0.60;99.90
37906;DHT22;23739;51.448;6.674;2024-01-15T09:01:01;0.50;99.90
37906;DHT22;23739;51.448;6.674;2024-01-15T09:03:26;0.50;99.90
37906;DHT22;23739;51.448;6.674;2024-01-15T09:05:53;0.50;99.90
37906;DHT22;23739;51.448;6.674;2024-01-15T09:08:20;0.50;99.90
37906;DHT22;23739;51.448;6.674;2024-01-15T09:10:46;0.60;99.90
37906;DHT22;23739;51.448;6.674;2024-01-15T09:13:11;0.50;1.00
37906;DHT22;23739;51.448;6.674;2024-01-15T09:15:37;0.60;1.00
37906;DHT22;23739;51.448;6.674;2024-01-15T09:18:02;0.60;1.00
37906;DHT22;23739;51.448;6.674;2024-01-15T09:20:28;0.70;1.00
37906;DHT22;23739;51.448;6.674;2024-01-15T09:22:54;1.00;1.00
37906;DHT22;23739;51.448;6.674;2024-01-15T09:25:20;1.10;99.90
37906;DHT22;23739;51.448;6.674;2024-01-15T09:27:45;1.30;99.90
37906;DHT22;23739;51.448;6.674;2024-01-15T09:30:11;1.30;99.90
37906;DHT22;23739;51.448;6.674;2024-01-15T09:32:37;1.20;99.90
37906;DHT22;23739;51.448;6.674;2024-01-15T09:35:03;0.90;99.90
37906;DHT22;23739;51.448;6.674;2024-01-15T09:37:29;1.00;99.90
37906;DHT22;23739;51.448;6.674;2024-01-15T09:39:55;1.00;99.90
37906;DHT22;23739;51.448;6.674;2024-01-15T09:42:23;1.00;99.90
37906;DHT22;23739;51.448;6.674;2024-01-15T09:44:50;1.00;99.90
37906;DHT22;23739;51.448;6.674;2024-01-15T09:47:18;1.10;99.90
37906;DHT22;23739;51.448;6.674;2024-01-15T09:49:44;1.10;99.90
37906;DHT22;23739;51.448;6.674;2024-01-15T09:52:11;1.20;1.00
37906;DHT22;23739;51.448;6.674;2024-01-15T09:54:37;1.00;1.00
37906;DHT22;23739;51.448;6.674;2024-01-15T09:57:04;1.00;1.00
37906;DHT22;23739;51.448;6.674;2024-01-15T10:01:57;1.10;1.00
37906;DHT22;23739;51.448;6.674;2024-01-15T10:04:24;1.20;1.00
37906;DHT22;23739;51.448;6.674;2024-01-15T10:06:51;1.60;1.00
37906;DHT22;23739;51.448;6.674;2024-01-15T10:09:17;1.30;1.00
37906;DHT22;23739;51.448;6.674;2024-01-15T10:11:44;1.30;10.10
37906;DHT22;23739;51.448;6.674;2024-01-15T10:14:13;1.10;2.40
37906;DHT22;23739;51.448;6.674;2024-01-15T10:16:39;1.20;17.80
37906;DHT22;23739;51.448;6.674;2024-01-15T10:19:05;1.20;1.00
37906;DHT22;23739;51.448;6.674;2024-01-15T10:21:32;1.30;1.00
